AIC96Y VOTV-VOMD
Flight info
| Callsign | AIC96Y |
|---|---|
| Flight time | 0h 31m |
| Altitude | 14000 |
| Route | RAMPU MDI |
| Aircraft | A320/M-SDE3FGHIRWY/LB1 |
Departure
| Time | 2026-04-29 10:54 |
|---|---|
| Airport | Thiruvananthapuram International Airport (VOTV) |
Arrival
| Time | 2026-04-29 11:25 |
|---|---|
| Airport | Madurai Airport (VOMD) |
| Time | Latitude | Longitude | Altitude | Speed | Heading |
|---|---|---|---|---|---|
| 2026-04-29 10:27 | 8.47778 | 76.91857 | 33 ft | 0 kts | 187° |
| 2026-04-29 10:43 | 8.47780 | 76.91857 | 33 ft | 2 kts | 187° |
| 2026-04-29 10:44 | 8.47805 | 76.91859 | 29 ft | 4 kts | 185° |
| 2026-04-29 10:44 | 8.47832 | 76.91862 | 31 ft | 4 kts | 184° |
| 2026-04-29 10:44 | 8.47858 | 76.91863 | 33 ft | 4 kts | 181° |
| 2026-04-29 10:44 | 8.47885 | 76.91863 | 33 ft | 4 kts | 177° |
| 2026-04-29 10:45 | 8.47911 | 76.91860 | 31 ft | 4 kts | 160° |
| 2026-04-29 10:45 | 8.47928 | 76.91849 | 30 ft | 2 kts | 97° |
| 2026-04-29 10:45 | 8.47929 | 76.91843 | 30 ft | 0 kts | 97° |
| 2026-04-29 10:49 | 8.47925 | 76.91871 | 31 ft | 10 kts | 97° |
| 2026-04-29 10:49 | 8.47915 | 76.91975 | 33 ft | 20 kts | 95° |
| 2026-04-29 10:49 | 8.47899 | 76.92146 | 34 ft | 28 kts | 95° |
| 2026-04-29 10:50 | 8.47865 | 76.92330 | 35 ft | 26 kts | 121° |
| 2026-04-29 10:50 | 8.47719 | 76.92478 | 35 ft | 33 kts | 136° |
| 2026-04-29 10:50 | 8.47548 | 76.92643 | 34 ft | 35 kts | 135° |
| 2026-04-29 10:50 | 8.47364 | 76.92823 | 33 ft | 37 kts | 136° |
| 2026-04-29 10:51 | 8.47268 | 76.92957 | 32 ft | 25 kts | 110° |
| 2026-04-29 10:51 | 8.47200 | 76.93059 | 33 ft | 15 kts | 175° |
| 2026-04-29 10:51 | 8.47176 | 76.93007 | 33 ft | 12 kts | 309° |
| 2026-04-29 10:51 | 8.47248 | 76.92935 | 34 ft | 15 kts | 316° |
| 2026-04-29 10:52 | 8.47259 | 76.92924 | 32 ft | 0 kts | 316° |
| 2026-04-29 10:52 | 8.47261 | 76.92922 | 34 ft | 4 kts | 316° |
| 2026-04-29 10:53 | 8.47456 | 76.92733 | 32 ft | 79 kts | 316° |
| 2026-04-29 10:53 | 8.48011 | 76.92192 | 35 ft | 140 kts | 316° |
| 2026-04-29 10:53 | 8.48833 | 76.91390 | 42 ft | 187 kts | 316° |
| 2026-04-29 10:53 | 8.49816 | 76.90432 | 422 ft | 204 kts | 316° |
| 2026-04-29 10:54 | 8.50873 | 76.89412 | 1026 ft | 217 kts | 318° |
| 2026-04-29 10:54 | 8.52264 | 76.88635 | 1431 ft | 243 kts | 338° |
| 2026-04-29 10:54 | 8.53934 | 76.88071 | 2032 ft | 259 kts | 342° |
| 2026-04-29 10:54 | 8.55709 | 76.87657 | 2925 ft | 266 kts | 355° |
| 2026-04-29 10:55 | 8.57574 | 76.87701 | 3838 ft | 269 kts | 1° |
| 2026-04-29 10:55 | 8.59453 | 76.87738 | 4773 ft | 271 kts | 0° |
| 2026-04-29 10:55 | 8.61350 | 76.87740 | 5666 ft | 274 kts | 0° |
| 2026-04-29 10:55 | 8.63267 | 76.87725 | 6493 ft | 278 kts | 0° |
| 2026-04-29 10:56 | 8.65216 | 76.87702 | 6854 ft | 281 kts | 0° |
| 2026-04-29 10:56 | 8.67174 | 76.87677 | 6985 ft | 281 kts | 0° |
| 2026-04-29 10:56 | 8.69112 | 76.87876 | 7009 ft | 280 kts | 17° |
| 2026-04-29 10:56 | 8.70876 | 76.88670 | 7014 ft | 278 kts | 34° |
| 2026-04-29 10:57 | 8.72319 | 76.89961 | 7015 ft | 278 kts | 47° |
| 2026-04-29 10:57 | 8.73645 | 76.91379 | 7012 ft | 277 kts | 47° |
| 2026-04-29 10:57 | 8.74973 | 76.92799 | 7014 ft | 278 kts | 47° |
| 2026-04-29 10:57 | 8.76299 | 76.94216 | 7017 ft | 277 kts | 46° |
| 2026-04-29 10:58 | 8.77627 | 76.95636 | 7017 ft | 278 kts | 46° |
| 2026-04-29 10:58 | 8.78954 | 76.97055 | 7021 ft | 278 kts | 46° |
| 2026-04-29 10:58 | 8.80282 | 76.98477 | 7022 ft | 278 kts | 46° |
| 2026-04-29 10:58 | 8.81616 | 76.99904 | 7225 ft | 283 kts | 46° |
| 2026-04-29 10:59 | 8.82964 | 77.01345 | 8122 ft | 282 kts | 47° |
| 2026-04-29 10:59 | 8.84316 | 77.02788 | 8986 ft | 284 kts | 47° |
| 2026-04-29 10:59 | 8.85680 | 77.04247 | 9793 ft | 287 kts | 47° |
| 2026-04-29 10:59 | 8.87051 | 77.05714 | 10353 ft | 298 kts | 47° |
| 2026-04-29 11:00 | 8.88551 | 77.07320 | 10587 ft | 320 kts | 47° |
| 2026-04-29 11:00 | 8.90104 | 77.08986 | 11120 ft | 329 kts | 47° |
| 2026-04-29 11:00 | 8.91687 | 77.10684 | 11775 ft | 334 kts | 48° |
| 2026-04-29 11:00 | 8.93288 | 77.12398 | 12458 ft | 337 kts | 48° |
| 2026-04-29 11:01 | 8.94907 | 77.14131 | 13131 ft | 341 kts | 48° |
| 2026-04-29 11:01 | 8.96546 | 77.15887 | 13653 ft | 345 kts | 48° |
| 2026-04-29 11:01 | 8.98188 | 77.17646 | 13783 ft | 345 kts | 48° |
| 2026-04-29 11:01 | 8.99785 | 77.19357 | 13823 ft | 333 kts | 48° |
| 2026-04-29 11:02 | 9.01361 | 77.21047 | 13826 ft | 328 kts | 48° |
| 2026-04-29 11:02 | 9.02924 | 77.22723 | 13825 ft | 327 kts | 48° |
| 2026-04-29 11:02 | 9.04482 | 77.24395 | 13825 ft | 327 kts | 48° |
| 2026-04-29 11:02 | 9.06041 | 77.26067 | 13825 ft | 327 kts | 48° |
| 2026-04-29 11:03 | 9.07600 | 77.27739 | 13825 ft | 327 kts | 48° |
| 2026-04-29 11:03 | 9.09157 | 77.29411 | 13822 ft | 326 kts | 48° |
| 2026-04-29 11:03 | 9.10715 | 77.31083 | 13824 ft | 326 kts | 48° |
| 2026-04-29 11:03 | 9.12271 | 77.32750 | 13820 ft | 326 kts | 48° |
| 2026-04-29 11:04 | 9.13829 | 77.34418 | 13824 ft | 326 kts | 48° |
| 2026-04-29 11:04 | 9.15380 | 77.36085 | 13824 ft | 326 kts | 48° |
| 2026-04-29 11:04 | 9.16933 | 77.37755 | 13822 ft | 326 kts | 48° |
| 2026-04-29 11:04 | 9.17962 | 77.38861 | 13821 ft | 326 kts | 48° |
| 2026-04-29 11:05 | 9.20042 | 77.41097 | 13826 ft | 325 kts | 48° |
| 2026-04-29 11:05 | 9.21069 | 77.42201 | 13827 ft | 325 kts | 48° |
| 2026-04-29 11:05 | 9.23141 | 77.44427 | 13827 ft | 325 kts | 48° |
| 2026-04-29 11:05 | 9.24689 | 77.46091 | 13830 ft | 325 kts | 48° |
| 2026-04-29 11:06 | 9.25713 | 77.47193 | 13826 ft | 325 kts | 48° |
| 2026-04-29 11:06 | 9.27261 | 77.48858 | 13829 ft | 324 kts | 48° |
| 2026-04-29 11:06 | 9.28808 | 77.50520 | 13827 ft | 324 kts | 47° |
| 2026-04-29 11:06 | 9.30353 | 77.52178 | 13822 ft | 324 kts | 47° |
| 2026-04-29 11:07 | 9.31901 | 77.53839 | 13821 ft | 324 kts | 47° |
| 2026-04-29 11:07 | 9.33449 | 77.55501 | 13819 ft | 324 kts | 47° |
| 2026-04-29 11:07 | 9.34994 | 77.57160 | 13818 ft | 324 kts | 48° |
| 2026-04-29 11:07 | 9.36542 | 77.58824 | 13818 ft | 324 kts | 47° |
| 2026-04-29 11:08 | 9.38587 | 77.61024 | 13815 ft | 324 kts | 47° |
| 2026-04-29 11:08 | 9.39631 | 77.62149 | 13816 ft | 324 kts | 48° |
| 2026-04-29 11:08 | 9.41175 | 77.63813 | 13812 ft | 324 kts | 47° |
| 2026-04-29 11:08 | 9.42699 | 77.65456 | 13811 ft | 324 kts | 47° |
| 2026-04-29 11:09 | 9.44243 | 77.67117 | 13805 ft | 324 kts | 47° |
| 2026-04-29 11:09 | 9.45787 | 77.68777 | 13807 ft | 324 kts | 47° |
| 2026-04-29 11:09 | 9.47329 | 77.70438 | 13802 ft | 324 kts | 47° |
| 2026-04-29 11:09 | 9.48873 | 77.72104 | 13804 ft | 324 kts | 47° |
| 2026-04-29 11:10 | 9.50418 | 77.73767 | 13804 ft | 324 kts | 47° |
| 2026-04-29 11:10 | 9.51964 | 77.75428 | 13799 ft | 324 kts | 47° |
| 2026-04-29 11:10 | 9.53508 | 77.77089 | 13796 ft | 324 kts | 47° |
| 2026-04-29 11:10 | 9.55054 | 77.78754 | 13792 ft | 324 kts | 47° |
| 2026-04-29 11:11 | 9.56597 | 77.80418 | 13792 ft | 324 kts | 47° |
| 2026-04-29 11:11 | 9.58139 | 77.82080 | 13792 ft | 324 kts | 47° |
| 2026-04-29 11:11 | 9.59685 | 77.83742 | 13794 ft | 324 kts | 47° |
| 2026-04-29 11:11 | 9.61230 | 77.85405 | 13790 ft | 324 kts | 47° |
| 2026-04-29 11:12 | 9.62775 | 77.87069 | 13788 ft | 324 kts | 47° |
| 2026-04-29 11:12 | 9.64318 | 77.88735 | 13787 ft | 327 kts | 47° |
| 2026-04-29 11:12 | 9.65909 | 77.90454 | 13784 ft | 336 kts | 47° |
| 2026-04-29 11:12 | 9.67478 | 77.92146 | 13305 ft | 326 kts | 47° |
| 2026-04-29 11:13 | 9.69021 | 77.93810 | 12528 ft | 322 kts | 47° |
| 2026-04-29 11:13 | 9.70534 | 77.95443 | 12040 ft | 310 kts | 47° |
| 2026-04-29 11:13 | 9.71980 | 77.97003 | 11658 ft | 296 kts | 47° |
| 2026-04-29 11:13 | 9.73378 | 77.98512 | 11289 ft | 294 kts | 47° |
| 2026-04-29 11:14 | 9.74775 | 78.00023 | 10912 ft | 293 kts | 47° |
| 2026-04-29 11:14 | 9.76168 | 78.01530 | 10536 ft | 293 kts | 47° |
| 2026-04-29 11:14 | 9.77562 | 78.03039 | 10172 ft | 292 kts | 47° |
| 2026-04-29 11:14 | 9.78916 | 78.04501 | 9954 ft | 286 kts | 47° |
| 2026-04-29 11:15 | 9.80275 | 78.05967 | 9597 ft | 286 kts | 47° |
| 2026-04-29 11:15 | 9.81763 | 78.07260 | 9172 ft | 278 kts | 25° |
| 2026-04-29 11:15 | 9.83593 | 78.07620 | 8800 ft | 266 kts | 353° |
| 2026-04-29 11:15 | 9.85257 | 78.06945 | 8441 ft | 256 kts | 321° |
| 2026-04-29 11:16 | 9.86293 | 78.05543 | 8103 ft | 248 kts | 291° |
| 2026-04-29 11:16 | 9.86489 | 78.03851 | 7758 ft | 241 kts | 260° |
| 2026-04-29 11:16 | 9.85857 | 78.02318 | 7405 ft | 235 kts | 231° |
| 2026-04-29 11:16 | 9.84659 | 78.01234 | 7082 ft | 228 kts | 217° |
| 2026-04-29 11:17 | 9.83539 | 78.00133 | 6762 ft | 221 kts | 234° |
| 2026-04-29 11:17 | 9.82802 | 77.98814 | 6439 ft | 211 kts | 250° |
| 2026-04-29 11:17 | 9.82458 | 77.97403 | 6117 ft | 203 kts | 265° |
| 2026-04-29 11:17 | 9.82380 | 77.96003 | 5804 ft | 195 kts | 267° |
| 2026-04-29 11:18 | 9.82307 | 77.94655 | 5517 ft | 187 kts | 266° |
| 2026-04-29 11:18 | 9.82236 | 77.93374 | 5241 ft | 178 kts | 266° |
| 2026-04-29 11:18 | 9.82167 | 77.92140 | 4971 ft | 172 kts | 265° |
| 2026-04-29 11:18 | 9.82141 | 77.90954 | 4725 ft | 166 kts | 276° |
| 2026-04-29 11:19 | 9.82592 | 77.89908 | 4486 ft | 161 kts | 309° |
| 2026-04-29 11:19 | 9.83486 | 77.89273 | 4305 ft | 158 kts | 342° |
| 2026-04-29 11:19 | 9.84565 | 77.89190 | 4140 ft | 156 kts | 15° |
| 2026-04-29 11:19 | 9.85509 | 77.89657 | 3971 ft | 151 kts | 46° |
| 2026-04-29 11:20 | 9.86094 | 77.90506 | 3801 ft | 145 kts | 75° |
| 2026-04-29 11:20 | 9.86210 | 77.91498 | 3642 ft | 141 kts | 102° |
| 2026-04-29 11:20 | 9.85867 | 77.92410 | 3491 ft | 140 kts | 127° |
| 2026-04-29 11:20 | 9.85196 | 77.93123 | 3343 ft | 141 kts | 136° |
| 2026-04-29 11:21 | 9.84490 | 77.93817 | 3177 ft | 142 kts | 136° |
| 2026-04-29 11:21 | 9.83785 | 77.94514 | 3015 ft | 142 kts | 136° |
| 2026-04-29 11:21 | 9.83135 | 77.95263 | 2848 ft | 142 kts | 125° |
| 2026-04-29 11:21 | 9.82718 | 77.96167 | 2680 ft | 143 kts | 110° |
| 2026-04-29 11:22 | 9.82578 | 77.97148 | 2513 ft | 143 kts | 94° |
| 2026-04-29 11:22 | 9.82648 | 77.98151 | 2350 ft | 142 kts | 91° |
| 2026-04-29 11:22 | 9.82722 | 77.99155 | 2192 ft | 143 kts | 93° |
| 2026-04-29 11:22 | 9.82796 | 78.00154 | 2025 ft | 141 kts | 91° |
| 2026-04-29 11:23 | 9.82868 | 78.01146 | 1834 ft | 142 kts | 91° |
| 2026-04-29 11:23 | 9.82940 | 78.02136 | 1657 ft | 141 kts | 91° |
| 2026-04-29 11:23 | 9.83011 | 78.03120 | 1471 ft | 138 kts | 91° |
| 2026-04-29 11:23 | 9.83081 | 78.04084 | 1292 ft | 137 kts | 91° |
| 2026-04-29 11:24 | 9.83152 | 78.05049 | 1106 ft | 137 kts | 90° |
| 2026-04-29 11:24 | 9.83223 | 78.06027 | 912 ft | 141 kts | 85° |
| 2026-04-29 11:24 | 9.83290 | 78.07017 | 754 ft | 141 kts | 87° |
| 2026-04-29 11:24 | 9.83365 | 78.07998 | 492 ft | 135 kts | 89° |
| 2026-04-29 11:25 | 9.83425 | 78.08908 | 442 ft | 114 kts | 85° |
| 2026-04-29 11:25 | 9.83474 | 78.09533 | 444 ft | 64 kts | 86° |
| 2026-04-29 11:25 | 9.83497 | 78.09846 | 446 ft | 35 kts | 86° |
| 2026-04-29 11:25 | 9.83501 | 78.10075 | 443 ft | 25 kts | 91° |
| 2026-04-29 11:26 | 9.83553 | 78.10119 | 442 ft | 1 kts | 266° |
| 2026-04-29 11:26 | 9.83553 | 78.10111 | 441 ft | 4 kts | 264° |
| 2026-04-29 11:26 | 9.83531 | 78.10052 | 441 ft | 14 kts | 249° |
| 2026-04-29 11:27 | 9.83502 | 78.09922 | 446 ft | 24 kts | 265° |
| 2026-04-29 11:27 | 9.83483 | 78.09722 | 432 ft | 33 kts | 263° |
| 2026-04-29 11:27 | 9.83459 | 78.09459 | 441 ft | 41 kts | 266° |
| 2026-04-29 11:27 | 9.83439 | 78.09163 | 433 ft | 38 kts | 266° |
| 2026-04-29 11:28 | 9.83485 | 78.08993 | 433 ft | 20 kts | 305° |
| 2026-04-29 11:28 | 9.83549 | 78.08916 | 434 ft | 8 kts | 339° |
| 2026-04-29 11:28 | 9.83597 | 78.08927 | 443 ft | 6 kts | 8° |
| 2026-04-29 11:28 | 9.83637 | 78.08925 | 443 ft | 5 kts | 357° |
| 2026-04-29 11:29 | 9.83669 | 78.08924 | 441 ft | 4 kts | 356° |
| 2026-04-29 11:29 | 9.83693 | 78.08922 | 438 ft | 3 kts | 355° |
| 2026-04-29 11:29 | 9.83711 | 78.08921 | 437 ft | 2 kts | 357° |
| 2026-04-29 11:29 | 9.83721 | 78.08920 | 443 ft | 1 kts | 356° |
| 2026-04-29 11:30 | 9.83726 | 78.08920 | 443 ft | 1 kts | 356° |
| 2026-04-29 11:30 | 9.83743 | 78.08919 | 431 ft | 2 kts | 356° |
| 2026-04-29 11:30 | 9.83754 | 78.08918 | 431 ft | 1 kts | 356° |
| 2026-04-29 11:30 | 9.83758 | 78.08918 | 433 ft | 0 kts | 356° |